Deauville-Saint-Gatien Airport

Airport
ICAO code: 
LFRG
IATA Code: 
DOL
Summary
ICAO Region: 
EUR
Territory: 
Location: 
, Basse-Normandie
Serving: 
Deauville
Elevation: 
479 ft
Coordinates: 
Aerial View: 
49° 21' 55.22" N, 0° 9' 15.502" E
Metar
Observation
LFRG 262300Z AUTO 22007KT 9000 OVC022 04/02 Q1033
Station
ST GATIEN
Date/Time
2022-01-26 23:00:00
Wind direction
220°
Wind speed
07 kts
Lowest cloud amount
overcast
Temperature
4°C
Dew point
2°C
Humidity
86%
QNH
1033 hPa
Weather condition
n/a

Runways

Designator Length Width Surface Rops
12/30 2550 45 ASP Yes/Yes
Airport map: 
Aerial View: 

Accidents and Serious Incidents at or in the vicinity of LFRG

SKYbrary Partners:

Safety knowledge contributed by: